Latest Weather Observations for Temora

IDN60801

Issued at 6:05 pm EDT Friday 31 October 2014 (issued every 30 minutes, with the page automatically refreshed every 10 minutes)

About weather observations | Map of weather stations | Latest weather observations for NSW | Other Formats
Station Details ID: 073151 Name: TEMORA AIRPORT Lat: -34.43 Lon: 147.51 Height: 280.5 m
Data from the previous 72 hours. | See also: Recent months at Temora
Date/Time
EDT
Temp
°C
App
Temp
°C
Dew
Point
Rel
Hum
%
Delta-T
°C
Wind Press
QNH
hPa
Press
MSL
hPa
Rain
since 9 am
mm
Dir
 
Spd
km/h
Gust
km/h
Spd
kts
Gust
kts
31/06:00pm 32.2 26.1 -2.0 11 16.3 W 20 28 11 15 1005.6 1005.1 0.0
31/05:30pm 33.2 27.1 -2.5 10 17.0 W 20 28 11 15 1005.6 1005.1 0.0
31/05:00pm 33.2 25.7 -1.2 11 16.7 NW 28 37 15 20 1005.9 1005.4 0.0
31/04:30pm 33.9 28.0 -2.0 10 17.2 NNW 19 26 10 14 1006.1 1005.6 0.0
31/04:00pm 33.7 26.1 -2.1 10 17.2 NW 28 41 15 22 1006.4 1006.0 0.0
31/03:30pm 35.3 27.1 -0.9 10 17.9 NNW 32 43 17 23 1006.8 1006.4 0.0
31/03:07pm 34.2 25.9 -1.7 10 17.4 N 32 50 17 27 1007.0 1006.6 0.0
31/03:00pm 34.6 26.0 -2.9 9 17.9 N 33 50 18 27 1007.0 1006.6 0.0
31/02:30pm 33.9 25.9 -2.0 10 17.2 NNW 30 39 16 21 1007.6 1007.1 0.0
31/02:00pm 34.4 26.9 -1.6 10 17.5 NW 28 43 15 23 1008.1 1007.6 0.0
31/01:30pm 34.0 27.2 -1.9 10 17.3 NNW 24 35 13 19 1008.7 1008.2 0.0
31/01:13pm 33.2 24.2 -2.5 10 16.9 N 35 54 19 29 1008.9 1008.4 0.0
31/01:00pm 34.1 25.6 -3.2 9 17.6 N 32 46 17 25 1009.1 1008.6 0.0
31/12:43pm 34.2 26.3 -1.7 10 17.4 NW 30 48 16 26 1009.3 1008.9 0.0
31/12:30pm 33.8 25.3 -2.0 10 17.2 N 33 43 18 23 1009.7 1009.3 0.0
31/12:00pm 34.1 26.3 -0.5 11 17.1 NNW 30 50 16 27 1010.3 1009.9 0.0
31/11:57am 34.0 26.6 -0.6 11 17.0 NNW 28 50 15 27 1010.3 1009.9 0.0
31/11:30am 32.5 25.1 -0.5 12 16.1 NNW 28 39 15 21 1011.2 1010.7 0.0
31/11:00am 31.5 24.3 0.8 14 15.2 N 28 37 15 20 1011.7 1011.2 0.0
31/10:30am 30.2 24.0 -0.2 14 14.7 N 22 30 12 16 1012.1 1011.6 0.0
31/10:00am 28.5 22.6 1.9 18 13.2 NNE 22 28 12 15 1012.5 1012.1 0.0
31/09:30am 27.4 21.5 1.8 19 12.6 N 22 30 12 16 1012.6 1012.2 0.0
31/09:00am 24.4 19.9 4.2 27 10.1 NNE 17 24 9 13 1013.0 1012.6 -
31/08:30am 21.4 17.6 4.0 32 8.5 NE 13 17 7 9 1013.3 1012.9 -
31/08:00am 18.9 16.5 5.4 41 6.7 ENE 7 11 4 6 1013.2 1012.8 -
31/07:52am 18.3 16.7 6.2 45 6.1 ENE 4 7 2 4 1013.2 1012.8 -
31/07:30am 13.2 12.1 4.9 57 3.9 CALM 0 0 0 0 1013.2 1012.8 -
31/07:00am 9.3 6.8 4.9 74 2.0 S 7 9 4 5 1012.9 1012.5 -
31/06:30am 7.4 4.3 3.5 76 1.7 S 9 11 5 6 1012.3 1011.8 -
31/06:00am 6.3 3.4 2.8 78 1.5 S 7 9 4 5 1012.0 1011.5 -
31/05:30am 6.7 3.9 3.0 77 1.6 S 7 9 4 5 1011.6 1011.1 -
31/05:00am 7.5 4.8 3.6 76 1.7 S 7 9 4 5 1011.4 1010.9 -
31/04:30am 6.9 4.2 2.6 74 1.8 SW 6 7 3 4 1011.3 1010.8 -
31/04:00am 7.7 4.9 3.2 73 1.9 SSW 7 9 4 5 1011.5 1011.0 -
31/03:30am 8.3 5.7 3.4 71 2.1 S 6 9 3 5 1011.7 1011.2 -
31/03:00am 8.1 5.5 3.2 71 2.1 S 6 7 3 4 1012.1 1011.6 -
31/02:30am 8.6 6.0 3.2 69 2.3 SSW 6 7 3 4 1012.2 1011.7 -
31/02:00am 9.5 7.4 3.9 68 2.5 S 4 7 2 4 1012.5 1012.1 -
31/01:30am 10.2 8.6 4.4 67 2.6 NNE 2 6 1 3 1013.0 1012.6 -
31/01:00am 10.3 7.8 4.0 65 2.8 ENE 6 11 3 6 1013.2 1012.8 -
31/12:30am 10.9 7.8 3.7 61 3.2 S 9 11 5 6 1013.3 1012.9 -
31/12:00am 11.5 8.5 4.3 61 3.3 S 9 11 5 6 1013.6 1013.2 0.0
 
Date/Time
EDT
Temp
°C
App
Temp
°C
Dew
Point
Rel
Hum
%
Delta-T
°C
Wind Press
QNH
hPa
Press
MSL
hPa
Rain
since 9 am
mm
Dir
 
Spd
km/h
Gust
km/h
Spd
kts
Gust
kts
30/11:30pm 11.9 10.5 3.7 57 3.7 CALM 0 0 0 0 1013.5 1013.1 0.0
30/11:00pm 12.8 11.4 3.5 53 4.2 CALM 0 0 0 0 1013.5 1013.1 0.0
30/10:30pm 13.7 12.3 3.5 50 4.7 CALM 0 0 0 0 1013.5 1013.1 0.0
30/10:00pm 15.6 14.2 3.7 45 5.6 CALM 0 0 0 0 1013.3 1012.9 0.0
30/09:30pm 16.0 14.1 4.7 47 5.4 S 4 9 2 5 1013.3 1012.9 0.0
30/09:00pm 18.8 17.4 3.8 37 7.2 CALM 0 0 0 0 1013.1 1012.7 0.0
30/08:30pm 21.0 19.5 2.8 30 8.7 CALM 0 0 0 0 1013.0 1012.6 0.0
30/08:00pm 23.5 21.0 1.8 24 10.4 WSW 4 6 2 3 1012.7 1012.3 0.0
30/07:30pm 25.8 21.6 1.8 21 11.6 W 13 19 7 10 1012.6 1012.2 0.0
30/07:00pm 28.3 23.2 0.9 17 13.3 W 17 24 9 13 1012.4 1012.0 0.0
30/06:30pm 29.4 24.1 1.8 17 13.7 W 19 26 10 14 1012.3 1011.8 0.0
30/06:00pm 30.0 24.4 1.5 16 14.2 W 20 32 11 17 1012.2 1011.7 0.0
30/05:30pm 30.2 24.8 2.5 17 14.0 WSW 20 28 11 15 1012.4 1012.0 0.0
30/05:00pm 30.6 24.4 1.9 16 14.4 W 24 35 13 19 1012.4 1012.0 0.0
30/04:30pm 30.4 24.9 1.8 16 14.3 WNW 20 37 11 20 1012.5 1012.1 0.0
30/04:00pm 30.6 24.2 1.0 15 14.6 WSW 24 33 13 18 1012.7 1012.3 0.0
30/03:30pm 30.7 24.6 0.2 14 14.9 W 22 35 12 19 1012.9 1012.5 0.0
30/03:00pm 30.1 24.8 -0.3 14 14.6 W 17 32 9 17 1013.3 1012.9 0.0
30/02:30pm 30.4 24.1 -1.1 13 15.0 WSW 22 35 12 19 1013.6 1013.2 0.0
30/02:06pm 30.2 22.2 0.7 15 14.5 WSW 32 39 17 21 1014.0 1013.6 0.0
30/02:00pm 29.7 25.8 1.2 16 14.0 SW 11 15 6 8 1014.0 1013.6 0.0
30/01:30pm 29.2 23.2 0.8 16 13.9 SSW 22 28 12 15 1014.4 1014.0 0.0
30/01:00pm 29.0 23.3 0.7 16 13.8 WNW 20 33 11 18 1014.9 1014.4 0.0
30/12:30pm 28.7 23.1 1.3 17 13.4 SSW 20 26 11 14 1015.2 1014.7 0.0
30/12:00pm 27.6 21.4 1.9 19 12.6 W 24 35 13 19 1015.5 1015.1 0.0
30/11:30am 27.1 21.5 1.5 19 12.5 NW 20 32 11 17 1015.9 1015.5 0.0
30/11:00am 26.1 21.4 3.4 23 11.3 WNW 17 26 9 14 1016.2 1015.8 0.0
30/10:30am 26.1 21.1 4.6 25 11.0 WNW 20 30 11 16 1016.2 1015.8 0.0
30/10:00am 23.8 21.3 4.7 29 9.6 NNW 7 13 4 7 1016.6 1016.2 0.0
30/09:30am 21.8 18.6 5.3 34 8.3 N 11 13 6 7 1016.6 1016.2 0.0
30/09:00am 18.9 16.5 5.4 41 6.7 N 7 7 4 4 1017.0 1016.6 0.0
30/08:30am 17.7 15.5 5.3 44 6.1 NE 6 9 3 5 1016.8 1016.4 0.0
30/08:00am 14.7 14.0 6.8 59 3.9 CALM 0 4 0 2 1016.6 1016.2 0.0
30/07:30am 9.6 8.6 5.8 77 1.8 CALM 0 0 0 0 1016.4 1016.0 0.0
30/07:00am 7.1 6.0 4.9 86 1.0 CALM 0 0 0 0 1016.1 1015.7 0.0
30/06:30am 4.6 1.6 2.3 85 0.9 S 7 7 4 4 1015.9 1015.5 0.0
30/06:00am 4.7 1.7 1.7 81 1.2 S 7 9 4 5 1015.7 1015.3 0.0
30/05:30am 5.1 3.5 2.5 83 1.1 CALM 0 0 0 0 1015.7 1015.3 0.0
30/05:00am 5.5 2.9 3.0 84 1.0 S 6 7 3 4 1015.3 1014.8 0.0
30/04:30am 5.7 3.1 3.0 83 1.1 S 6 9 3 5 1015.5 1015.1 0.0
30/04:00am 5.0 2.2 2.0 81 1.2 S 6 7 3 4 1015.4 1014.9 0.0
30/03:30am 5.9 3.2 2.7 80 1.3 S 6 9 3 5 1015.6 1015.2 0.0
30/03:00am 6.0 3.3 2.6 79 1.4 S 6 7 3 4 1015.6 1015.2 0.0
30/02:30am 6.7 4.2 3.7 81 1.3 S 6 9 3 5 1015.7 1015.3 0.0
30/02:00am 6.6 4.7 2.7 76 1.6 S 2 6 1 3 1015.9 1015.5 0.0
30/01:30am 8.2 6.8 3.7 73 2.0 CALM 0 0 0 0 1015.9 1015.5 0.0
30/01:00am 7.7 6.1 2.6 70 2.2 CALM 0 0 0 0 1016.2 1015.8 0.0
30/12:30am 8.4 5.9 3.5 71 2.1 SSW 6 7 3 4 1016.4 1016.0 0.0
30/12:00am 9.4 6.6 2.9 64 2.8 S 7 9 4 5 1016.6 1016.2 0.0
 
Date/Time
EDT
Temp
°C
App
Temp
°C
Dew
Point
Rel
Hum
%
Delta-T
°C
Wind Press
QNH
hPa
Press
MSL
hPa
Rain
since 9 am
mm
Dir
 
Spd
km/h
Gust
km/h
Spd
kts
Gust
kts
29/11:30pm 9.8 6.6 3.1 63 2.9 S 9 9 5 5 1016.6 1016.2 0.0
29/11:00pm 11.8 9.1 3.8 58 3.6 S 7 9 4 5 1016.8 1016.4 0.0
29/10:30pm 13.3 10.8 4.5 55 4.1 S 7 7 4 4 1016.7 1016.3 0.0
29/10:00pm 14.7 12.2 4.7 51 4.7 SSW 7 9 4 5 1016.6 1016.2 0.0
29/09:30pm 15.8 13.3 4.5 47 5.4 SSW 7 9 4 5 1016.6 1016.2 0.0
29/09:00pm 18.4 15.6 3.1 36 7.2 SW 7 9 4 5 1016.2 1015.8 0.0
29/08:30pm 19.7 16.6 3.4 34 7.8 SW 9 11 5 6 1016.0 1015.6 0.0
29/08:00pm 19.8 16.2 3.1 33 7.9 WSW 11 13 6 7 1015.8 1015.4 0.0
29/07:30pm 21.5 17.9 3.2 30 8.8 WSW 11 13 6 7 1015.6 1015.2 0.0
29/07:00pm 24.3 21.2 3.6 26 10.3 W 9 13 5 7 1015.2 1014.7 0.0
29/06:30pm 25.6 21.7 3.5 24 11.0 WSW 13 20 7 11 1015.2 1014.7 0.0
29/06:00pm 25.9 21.2 3.2 23 11.3 W 17 24 9 13 1015.1 1014.6 0.0
29/05:30pm 26.3 21.3 3.5 23 11.4 WSW 19 26 10 14 1015.1 1014.6 0.0
29/05:00pm 26.0 20.9 3.3 23 11.3 SW 19 30 10 16 1015.2 1014.7 0.0
29/04:30pm 26.6 22.8 3.8 23 11.5 SW 13 20 7 11 1015.3 1014.8 0.0
29/04:00pm 26.8 22.6 4.0 23 11.6 WSW 15 24 8 13 1015.5 1015.1 0.0
29/03:30pm 26.8 22.6 4.0 23 11.6 WSW 15 30 8 16 1015.8 1015.4 0.0
29/03:00pm 26.5 21.4 3.1 22 11.7 SW 19 32 10 17 1016.3 1015.9 0.0
29/02:30pm 25.6 21.7 3.5 24 11.0 W 13 26 7 14 1016.6 1016.2 0.0
29/02:00pm 25.6 20.6 3.5 24 11.0 W 19 26 10 14 1016.9 1016.5 0.0
29/01:30pm 24.3 19.2 4.1 27 10.1 SSW 20 28 11 15 1017.4 1017.0 0.0
29/01:00pm 23.8 18.8 3.7 27 9.9 WSW 19 28 10 15 1017.5 1017.1 0.0
29/12:30pm 23.5 19.4 4.5 29 9.5 SSW 15 24 8 13 1017.9 1017.5 0.0
29/12:00pm 22.4 18.3 4.5 31 8.9 WNW 15 19 8 10 1018.6 1018.2 0.0
29/11:30am 21.0 16.1 4.1 33 8.3 W 19 26 10 14 1018.8 1018.4 0.0
29/11:00am 20.5 16.9 4.9 36 7.7 WSW 13 26 7 14 1019.2 1018.8 0.0
29/10:30am 19.8 15.8 5.1 38 7.3 WSW 15 26 8 14 1019.5 1019.1 0.0
29/10:00am 19.0 15.6 6.1 43 6.5 WSW 13 22 7 12 1019.7 1019.3 0.0
29/09:30am 18.3 15.0 6.2 45 6.1 SSW 13 19 7 10 1019.6 1019.2 0.0
29/09:00am 17.1 13.8 6.3 49 5.4 SSW 13 19 7 10 1019.7 1019.3 0.0
29/08:30am 15.6 12.8 6.9 56 4.3 S 11 15 6 8 1019.7 1019.3 0.0
29/08:00am 13.7 11.9 7.0 64 3.3 SSE 6 9 3 5 1019.5 1019.1 0.0
29/07:30am 10.5 8.5 6.3 75 2.0 W 6 7 3 4 1019.1 1018.7 0.0
29/07:00am 7.2 6.1 5.2 87 0.9 CALM 0 0 0 0 1018.7 1018.3 0.0
29/06:30am 5.8 4.5 4.0 88 0.8 CALM 0 0 0 0 1018.3 1017.9 0.0
29/06:00am 5.7 4.4 3.9 88 0.8 CALM 0 0 0 0 1017.9 1017.5 0.0
29/05:30am 5.6 3.3 2.6 81 1.2 SW 4 7 2 4 1017.4 1017.0 0.0
29/05:00am 6.5 3.8 3.5 81 1.3 SW 7 9 4 5 1017.0 1016.6 0.0
29/04:30am 7.2 6.1 5.0 86 1.0 CALM 0 0 0 0 1016.8 1016.4 0.0
29/04:00am 6.0 4.5 3.0 81 1.3 CALM 0 0 0 0 1016.5 1016.1 0.0
29/03:30am 6.5 5.1 3.5 81 1.3 CALM 0 0 0 0 1016.3 1015.9 0.0
29/03:00am 5.9 4.4 2.9 81 1.3 CALM 0 0 0 0 1016.3 1015.9 0.0
29/02:30am 7.3 4.8 3.9 79 1.5 SSW 6 7 3 4 1016.3 1015.9 0.0
29/02:00am 6.9 5.5 3.5 79 1.5 CALM 0 0 0 0 1016.3 1015.9 0.0
29/01:30am 7.4 6.1 4.2 80 1.4 CALM 0 0 0 0 1016.4 1016.0 0.0
29/01:00am 7.2 5.8 3.6 78 1.6 CALM 0 6 0 3 1016.7 1016.3 0.0
29/12:30am 8.5 6.8 3.9 73 2.0 SSW 2 7 1 4 1016.7 1016.3 0.0
29/12:00am 7.5 4.6 2.8 72 2.0 S 7 7 4 4 1016.7 1016.3 0.0
 
Date/Time
EDT
Temp
°C
App
Temp
°C
Dew
Point
Rel
Hum
%
Delta-T
°C
Wind Press
QNH
hPa
Press
MSL
hPa
Rain
since 9 am
mm
Dir
 
Spd
km/h
Gust
km/h
Spd
kts
Gust
kts
28/11:30pm 10.4 8.3 4.1 65 2.8 SW 4 6 2 3 1016.7 1016.3 0.0
28/11:00pm 11.4 9.1 4.8 64 3.0 WSW 6 6 3 3 1016.5 1016.1 0.0
28/10:30pm 13.0 10.7 4.9 58 3.8 WSW 6 7 3 4 1016.4 1016.0 0.0
28/10:00pm 15.4 13.1 5.0 50 5.0 SW 6 7 3 4 1016.3 1015.9 0.0
28/09:30pm 16.0 13.2 5.0 48 5.3 SW 9 13 5 7 1016.3 1015.9 0.0
28/09:00pm 17.0 13.8 5.0 45 5.8 SW 11 17 6 9 1016.1 1015.7 0.0
28/08:30pm 17.8 14.1 4.4 41 6.4 SW 13 20 7 11 1015.8 1015.4 0.0
28/08:00pm 18.9 14.4 4.3 38 7.1 WSW 17 26 9 14 1015.4 1014.9 0.0
28/07:30pm 19.7 14.6 4.2 36 7.5 WSW 20 33 11 18 1015.0 1014.5 0.0
28/07:00pm 20.7 14.9 4.3 34 8.0 WSW 24 35 13 19 1014.5 1014.1 0.0
28/06:30pm 21.3 15.8 4.0 32 8.5 WSW 22 33 12 18 1014.2 1013.8 0.0

Other Formats:

Comma delimited format used in spreadsheet applications
http://www.bom.gov.au/fwo/IDN60801/IDN60801.95722.axf

JavaScript Object Notation format (JSON) in row-major order
http://www.bom.gov.au/fwo/IDN60801/IDN60801.95722.json